Time,TemperatureF,DewpointF,PressureIn,WindDirection,WindDirectionDegrees,WindSpeedMPH,WindSpeedGustMPH,Humidity,HourlyPrecipIn,Conditions,Clouds,dailyrainin,SolarRadiationWatts/m^2,SoftwareType,DateUTC
2013-07-20 00:01:00,71.0,49.0,-100.00,WSW,245,6.0,13.0,46,0.00,,,0.00,0.000000,,2013-07-20 06:01:00,
2013-07-20 00:11:00,71.0,49.0,-100.00,WSW,245,6.0,13.0,46,0.00,,,0.00,0.000000,,2013-07-20 06:11:00,
2013-07-20 00:21:00,71.0,49.0,-100.00,WSW,245,6.0,13.0,46,0.00,,,0.00,0.000000,,2013-07-20 06:21:00,
2013-07-20 00:32:00,71.0,49.0,-100.00,WSW,245,6.0,13.0,46,0.00,,,0.00,0.000000,,2013-07-20 06:32:00,
2013-07-20 00:52:00,69.0,50.0,-100.00,SSW,198,3.0,10.0,51,0.00,,,0.00,0.000000,,2013-07-20 06:52:00,
2013-07-20 01:01:00,69.0,50.0,-100.00,SSW,198,3.0,10.0,51,0.00,,,0.00,0.000000,,2013-07-20 07:01:00,
2013-07-20 01:12:00,69.0,50.0,-100.00,SSW,198,3.0,10.0,51,0.00,,,0.00,0.000000,,2013-07-20 07:12:00,
2013-07-20 01:22:00,69.0,50.0,-100.00,SSW,198,3.0,10.0,51,0.00,,,0.00,0.000000,,2013-07-20 07:22:00,
2013-07-20 01:33:00,69.0,50.0,-100.00,SSW,198,3.0,10.0,51,0.00,,,0.00,0.000000,,2013-07-20 07:33:00,
2013-07-20 01:54:00,68.0,51.0,-100.00,SSE,162,5.0,14.0,54,0.00,,,0.00,0.000000,,2013-07-20 07:54:00,
2013-07-20 02:01:00,68.0,51.0,-100.00,SSE,162,5.0,14.0,54,0.00,,,0.00,0.000000,,2013-07-20 08:01:00,
2013-07-20 02:11:00,68.0,51.0,-100.00,SSE,162,5.0,14.0,54,0.00,,,0.00,0.000000,,2013-07-20 08:11:00,
2013-07-20 02:22:00,68.0,51.0,-100.00,SSE,162,5.0,14.0,54,0.00,,,0.00,0.000000,,2013-07-20 08:22:00,
2013-07-20 02:32:00,68.0,51.0,-100.00,SSE,162,5.0,14.0,54,0.00,,,0.00,0.000000,,2013-07-20 08:32:00,
2013-07-20 02:52:00,67.0,51.0,-100.00,SSW,202,3.0,12.0,56,0.00,,,0.00,0.000000,,2013-07-20 08:52:00,
2013-07-20 03:02:00,67.0,51.0,-100.00,SSW,202,3.0,12.0,56,0.00,,,0.00,0.000000,,2013-07-20 09:02:00,
2013-07-20 03:11:00,67.0,51.0,-100.00,SSW,202,3.0,12.0,56,0.00,,,0.00,0.000000,,2013-07-20 09:11:00,
2013-07-20 03:22:00,67.0,51.0,-100.00,SSW,202,3.0,12.0,56,0.00,,,0.00,0.000000,,2013-07-20 09:22:00,
2013-07-20 03:33:00,67.0,51.0,-100.00,SSW,202,3.0,12.0,56,0.00,,,0.00,0.000000,,2013-07-20 09:33:00,
2013-07-20 03:53:00,65.0,50.0,-100.00,North,10,0.0,5.0,59,0.00,,,0.00,0.000000,,2013-07-20 09:53:00,
2013-07-20 04:01:00,65.0,50.0,-100.00,North,10,0.0,5.0,59,0.00,,,0.00,0.000000,,2013-07-20 10:01:00,
2013-07-20 04:11:00,65.0,50.0,-100.00,North,10,0.0,5.0,59,0.00,,,0.00,0.000000,,2013-07-20 10:11:00,
2013-07-20 04:22:00,65.0,50.0,-100.00,North,10,0.0,5.0,59,0.00,,,0.00,0.000000,,2013-07-20 10:22:00,
2013-07-20 04:32:00,65.0,50.0,-100.00,North,10,0.0,5.0,59,0.00,,,0.00,0.000000,,2013-07-20 10:32:00,
2013-07-20 04:52:00,63.0,51.0,-100.00,ENE,66,2.0,5.0,66,0.00,,,0.00,0.000000,,2013-07-20 10:52:00,
2013-07-20 05:01:00,63.0,51.0,-100.00,ENE,66,2.0,5.0,66,0.00,,,0.00,0.000000,,2013-07-20 11:01:00,
2013-07-20 05:11:00,63.0,51.0,-100.00,ENE,66,2.0,5.0,66,0.00,,,0.00,0.000000,,2013-07-20 11:11:00,
2013-07-20 05:22:00,63.0,51.0,-100.00,ENE,66,2.0,5.0,66,0.00,,,0.00,0.000000,,2013-07-20 11:22:00,
2013-07-20 05:32:00,63.0,51.0,-100.00,ENE,66,2.0,5.0,66,0.00,,,0.00,0.000000,,2013-07-20 11:32:00,
2013-07-20 05:52:00,64.0,50.0,-100.00,NE,53,5.0,7.0,61,0.00,,,0.00,0.000000,,2013-07-20 11:52:00,
2013-07-20 06:01:00,64.0,50.0,-100.00,NE,53,5.0,7.0,61,0.00,,,0.00,0.000000,,2013-07-20 12:01:00,
2013-07-20 06:11:00,64.0,50.0,-100.00,NE,53,5.0,7.0,61,0.00,,,0.00,0.000000,,2013-07-20 12:11:00,
2013-07-20 06:22:00,64.0,50.0,-100.00,NE,53,5.0,7.0,61,0.00,,,0.00,0.000000,,2013-07-20 12:22:00,
2013-07-20 06:32:00,64.0,50.0,-100.00,NE,53,5.0,7.0,61,0.00,,,0.00,0.000000,,2013-07-20 12:32:00,
2013-07-20 06:52:00,63.0,51.0,-100.00,East,82,6.0,8.0,64,0.00,,,0.00,12.000000,,2013-07-20 12:52:00,
2013-07-20 07:01:00,63.0,51.0,-100.00,East,82,6.0,8.0,64,0.00,,,0.00,12.000000,,2013-07-20 13:01:00,
2013-07-20 07:11:00,63.0,51.0,-100.00,East,82,6.0,8.0,64,0.00,,,0.00,12.000000,,2013-07-20 13:11:00,
2013-07-20 07:22:00,63.0,51.0,-100.00,East,82,6.0,8.0,64,0.00,,,0.00,12.000000,,2013-07-20 13:22:00,
2013-07-20 07:32:00,63.0,51.0,-100.00,East,82,6.0,8.0,64,0.00,,,0.00,12.000000,,2013-07-20 13:32:00,
2013-07-20 07:53:00,68.0,51.0,-100.00,ENE,74,5.0,8.0,55,0.00,,,0.00,148.000000,,2013-07-20 13:53:00,
2013-07-20 08:02:00,68.0,51.0,-100.00,ENE,74,5.0,8.0,55,0.00,,,0.00,148.000000,,2013-07-20 14:02:00,
2013-07-20 08:11:00,68.0,51.0,-100.00,ENE,74,5.0,8.0,55,0.00,,,0.00,148.000000,,2013-07-20 14:11:00,
2013-07-20 08:22:00,68.0,51.0,-100.00,ENE,74,5.0,8.0,55,0.00,,,0.00,148.000000,,2013-07-20 14:22:00,
2013-07-20 08:32:00,68.0,51.0,-100.00,ENE,74,5.0,8.0,55,0.00,,,0.00,148.000000,,2013-07-20 14:32:00,
2013-07-20 08:53:00,69.0,51.0,-100.00,ENE,59,6.0,11.0,53,0.00,,,0.00,355.000000,,2013-07-20 14:53:00,
2013-07-20 09:01:00,69.0,51.0,-100.00,ENE,59,6.0,11.0,53,0.00,,,0.00,355.000000,,2013-07-20 15:01:00,
2013-07-20 09:11:00,69.0,51.0,-100.00,ENE,59,6.0,11.0,53,0.00,,,0.00,355.000000,,2013-07-20 15:11:00,
2013-07-20 09:22:00,69.0,51.0,-100.00,ENE,59,6.0,11.0,53,0.00,,,0.00,355.000000,,2013-07-20 15:22:00,
2013-07-20 09:33:00,69.0,51.0,-100.00,ENE,59,6.0,11.0,53,0.00,,,0.00,355.000000,,2013-07-20 15:33:00,
2013-07-20 09:53:00,72.0,51.0,-100.00,NE,44,5.0,10.0,47,0.00,,,0.00,574.000000,,2013-07-20 15:53:00,
2013-07-20 10:01:00,72.0,51.0,-100.00,NE,44,5.0,10.0,47,0.00,,,0.00,574.000000,,2013-07-20 16:01:00,
2013-07-20 10:11:00,72.0,51.0,-100.00,NE,44,5.0,10.0,47,0.00,,,0.00,574.000000,,2013-07-20 16:11:00,
2013-07-20 10:22:00,72.0,51.0,-100.00,NE,44,5.0,10.0,47,0.00,,,0.00,574.000000,,2013-07-20 16:22:00,
2013-07-20 10:32:00,72.0,51.0,-100.00,NE,44,5.0,10.0,47,0.00,,,0.00,574.000000,,2013-07-20 16:32:00,
2013-07-20 10:52:00,77.0,51.0,-100.00,West,271,2.0,7.0,40,0.00,,,0.00,771.000000,,2013-07-20 16:52:00,
2013-07-20 11:02:00,77.0,51.0,-100.00,West,271,2.0,7.0,40,0.00,,,0.00,771.000000,,2013-07-20 17:02:00,
2013-07-20 11:11:00,77.0,51.0,-100.00,West,271,2.0,7.0,40,0.00,,,0.00,771.000000,,2013-07-20 17:11:00,
2013-07-20 11:22:00,77.0,51.0,-100.00,West,271,2.0,7.0,40,0.00,,,0.00,771.000000,,2013-07-20 17:22:00,
2013-07-20 11:32:00,77.0,51.0,-100.00,West,271,2.0,7.0,40,0.00,,,0.00,771.000000,,2013-07-20 17:32:00,
2013-07-20 11:34:00,80.0,49.0,-100.00,South,183,4.0,8.0,34,0.00,,,0.00,932.000000,,2013-07-20 17:34:00,
2013-07-20 11:53:00,80.0,49.0,-100.00,South,183,4.0,8.0,34,0.00,,,0.00,932.000000,,2013-07-20 17:53:00,
2013-07-20 12:01:00,80.0,49.0,-100.00,South,183,4.0,8.0,34,0.00,,,0.00,932.000000,,2013-07-20 18:01:00,
2013-07-20 12:11:00,80.0,49.0,-100.00,South,183,4.0,8.0,34,0.00,,,0.00,932.000000,,2013-07-20 18:11:00,
2013-07-20 12:59:00,84.0,45.0,-100.00,SSW,193,5.0,10.0,26,0.00,,,0.00,1035.000000,,2013-07-20 18:59:00,
2013-07-20 13:05:00,84.0,45.0,-100.00,SSW,193,5.0,10.0,26,0.00,,,0.00,1035.000000,,2013-07-20 19:05:00,
2013-07-20 13:14:00,84.0,45.0,-100.00,SSW,193,5.0,10.0,26,0.00,,,0.00,1035.000000,,2013-07-20 19:14:00,
2013-07-20 13:33:00,84.0,45.0,-100.00,SSW,193,5.0,10.0,26,0.00,,,0.00,1035.000000,,2013-07-20 19:33:00,
2013-07-20 13:56:00,86.0,43.0,-100.00,SE,135,6.0,17.0,22,0.00,,,0.00,1084.000000,,2013-07-20 19:56:00,
2013-07-20 14:05:00,86.0,43.0,-100.00,SE,135,6.0,17.0,22,0.00,,,0.00,1084.000000,,2013-07-20 20:05:00,
2013-07-20 14:14:00,86.0,43.0,-100.00,SE,135,6.0,17.0,22,0.00,,,0.00,1084.000000,,2013-07-20 20:14:00,
2013-07-20 14:23:00,86.0,43.0,-100.00,SE,135,6.0,17.0,22,0.00,,,0.00,1084.000000,,2013-07-20 20:23:00,
2013-07-20 14:33:00,86.0,43.0,-100.00,SE,135,6.0,17.0,22,0.00,,,0.00,1084.000000,,2013-07-20 20:33:00,
2013-07-20 14:57:00,84.0,41.0,-100.00,West,259,7.0,18.0,22,0.00,,,0.00,850.000000,,2013-07-20 20:57:00,
2013-07-20 15:04:00,84.0,41.0,-100.00,West,259,7.0,18.0,22,0.00,,,0.00,850.000000,,2013-07-20 21:04:00,
2013-07-20 15:26:00,84.0,41.0,-100.00,West,259,7.0,18.0,22,0.00,,,0.00,850.000000,,2013-07-20 21:26:00,
2013-07-20 15:56:00,83.0,39.0,-100.00,NW,312,12.0,25.0,21,0.00,,,0.00,639.000000,,2013-07-20 21:56:00,
2013-07-20 16:05:00,83.0,39.0,-100.00,NW,312,12.0,25.0,21,0.00,,,0.00,639.000000,,2013-07-20 22:05:00,
2013-07-20 16:15:00,83.0,39.0,-100.00,NW,312,12.0,25.0,21,0.00,,,0.00,639.000000,,2013-07-20 22:15:00,
2013-07-20 16:25:00,83.0,39.0,-100.00,NW,312,12.0,25.0,21,0.00,,,0.00,639.000000,,2013-07-20 22:25:00,
2013-07-20 16:33:00,83.0,39.0,-100.00,NW,312,12.0,25.0,21,0.00,,,0.00,639.000000,,2013-07-20 22:33:00,
2013-07-20 16:34:00,81.0,43.0,-100.00,WSW,251,7.0,33.0,26,0.00,,,0.00,269.000000,,2013-07-20 22:34:00,
2013-07-20 17:56:00,88.0,38.0,-100.00,West,259,7.0,12.0,17,0.00,,,0.00,676.000000,,2013-07-20 23:56:00,
2013-07-20 18:06:00,88.0,38.0,-100.00,West,259,7.0,12.0,17,0.00,,,0.00,676.000000,,2013-07-21 00:06:00,
2013-07-20 18:16:00,88.0,38.0,-100.00,West,259,7.0,12.0,17,0.00,,,0.00,676.000000,,2013-07-21 00:16:00,
2013-07-20 18:22:00,88.0,38.0,-100.00,West,259,7.0,12.0,17,0.00,,,0.00,676.000000,,2013-07-21 00:22:00,
2013-07-20 18:56:00,88.0,35.0,-100.00,WSW,250,6.0,11.0,15,0.00,,,0.00,474.000000,,2013-07-21 00:56:00,
2013-07-20 19:06:00,88.0,35.0,-100.00,WSW,250,6.0,11.0,15,0.00,,,0.00,474.000000,,2013-07-21 01:06:00,
2013-07-20 19:12:00,88.0,35.0,-100.00,WSW,250,6.0,11.0,15,0.00,,,0.00,474.000000,,2013-07-21 01:12:00,
2013-07-20 19:25:00,88.0,35.0,-100.00,WSW,250,6.0,11.0,15,0.00,,,0.00,474.000000,,2013-07-21 01:25:00,
2013-07-20 19:34:00,86.0,38.0,-100.00,WNW,291,6.0,10.0,18,0.00,,,0.00,258.000000,,2013-07-21 01:34:00,
2013-07-20 19:59:00,86.0,38.0,-100.00,WNW,291,6.0,10.0,18,0.00,,,0.00,258.000000,,2013-07-21 01:59:00,
2013-07-20 20:04:00,86.0,38.0,-100.00,WNW,291,6.0,10.0,18,0.00,,,0.00,258.000000,,2013-07-21 02:04:00,
2013-07-20 20:16:00,86.0,38.0,-100.00,WNW,291,6.0,10.0,18,0.00,,,0.00,258.000000,,2013-07-21 02:16:00,
2013-07-20 20:34:00,82.0,37.0,-100.00,West,278,5.0,9.0,20,0.00,,,0.00,68.000000,,2013-07-21 02:34:00,
2013-07-20 20:58:00,82.0,37.0,-100.00,West,278,5.0,9.0,20,0.00,,,0.00,68.000000,,2013-07-21 02:58:00,
2013-07-20 21:04:00,82.0,37.0,-100.00,West,278,5.0,9.0,20,0.00,,,0.00,68.000000,,2013-07-21 03:04:00,
2013-07-20 21:14:00,82.0,37.0,-100.00,West,278,5.0,9.0,20,0.00,,,0.00,68.000000,,2013-07-21 03:14:00,
2013-07-20 21:24:00,82.0,37.0,-100.00,West,278,5.0,9.0,20,0.00,,,0.00,68.000000,,2013-07-21 03:24:00,
2013-07-20 22:00:00,80.0,37.0,-100.00,West,278,4.0,10.0,21,-99.99,,,0.00,1.000000,,2013-07-21 04:00:00,
2013-07-20 22:01:00,80.0,37.0,-100.00,West,278,4.0,10.0,21,-99.99,,,0.00,1.000000,,2013-07-21 04:01:00,
2013-07-20 22:11:00,80.0,37.0,-100.00,West,278,4.0,10.0,21,-99.99,,,0.00,1.000000,,2013-07-21 04:11:00,
2013-07-20 22:22:00,80.0,37.0,-100.00,West,278,4.0,10.0,21,-99.99,,,0.00,1.000000,,2013-07-21 04:22:00,
2013-07-20 22:32:00,80.0,37.0,-100.00,West,278,4.0,10.0,21,-99.99,,,0.00,1.000000,,2013-07-21 04:32:00,
2013-07-20 22:53:00,78.0,36.0,-100.00,WNW,282,5.0,7.0,22,0.00,,,0.00,0.000000,,2013-07-21 04:53:00,
2013-07-20 23:02:00,78.0,36.0,-100.00,WNW,282,5.0,7.0,22,0.00,,,0.00,0.000000,,2013-07-21 05:02:00,
2013-07-20 23:11:00,78.0,36.0,-100.00,WNW,282,5.0,7.0,22,0.00,,,0.00,0.000000,,2013-07-21 05:11:00,
2013-07-20 23:22:00,78.0,36.0,-100.00,WNW,282,5.0,7.0,22,0.00,,,0.00,0.000000,,2013-07-21 05:22:00,
2013-07-20 23:32:00,78.0,36.0,-100.00,WNW,282,5.0,7.0,22,0.00,,,0.00,0.000000,,2013-07-21 05:32:00,
2013-07-20 23:52:00,77.0,36.0,-100.00,NE,45,2.0,6.0,23,0.00,,,0.00,0.000000,,2013-07-21 05:52:00,